Time;durP1;ratioP1;P1;durP2;ratioP2;P2;SDS_P1;SDS_P2;PMS_P1;PMS_P2;Temp;Humidity;BMP_temperature;BMP_pressure;BME280_temperature;BME280_humidity;BME280_pressure;Samples;Min_cycle;Max_cycle;Signal;HPM_P1;HPM_P2
2021/04/23 00:00:36;;;;;;;1.45;0.90;;;;;;;23.47;41.56;95092.44;4993931;28;20057;-85
2021/04/23 00:03:06;;;;;;;1.52;0.90;;;;;;;23.49;41.07;95073.56;4994679;28;20086;-85
2021/04/23 00:05:32;;;;;;;1.70;0.90;;;;;;;23.38;41.53;95076.41;4996611;28;20077;-85
2021/04/23 00:07:57;;;;;;;1.17;0.80;;;;;;;23.46;41.76;95082.75;4994987;28;20743;-85
2021/04/23 00:10:24;;;;;;;1.67;1.00;;;;;;;23.35;41.46;95069.22;5012966;28;20030;-85
2021/04/23 00:12:49;;;;;;;1.58;0.90;;;;;;;23.42;41.46;95093.19;4980347;28;20033;-85
2021/04/23 00:15:16;;;;;;;1.30;0.90;;;;;;;23.39;41.92;95091.47;4995555;28;20053;-84
2021/04/23 00:17:42;;;;;;;1.55;1.02;;;;;;;23.38;41.88;95092.75;5012981;28;20041;-85
2021/04/23 00:20:14;;;;;;;1.10;0.80;;;;;;;23.37;41.27;95093.97;5013616;28;20034;-85
2021/04/23 00:22:40;;;;;;;1.05;0.82;;;;;;;23.36;41.74;95087.03;5013243;28;20041;-84
2021/04/23 00:25:06;;;;;;;2.10;1.10;;;;;;;23.38;41.23;95090.75;4995809;28;20424;-85
2021/04/23 00:27:31;;;;;;;1.58;1.08;;;;;;;23.28;41.43;95072.50;5011535;28;20034;-85
2021/04/23 00:29:58;;;;;;;1.63;0.90;;;;;;;23.27;41.62;95075.72;4979337;28;20028;-86
2021/04/23 00:35:08;;;;;;;1.67;0.90;;;;;;;23.33;41.35;95082.59;4984163;28;20033;-85
2021/04/23 00:37:34;;;;;;;1.45;0.95;;;;;;;23.31;41.34;95079.66;5012672;28;20025;-84
2021/04/23 00:39:59;;;;;;;1.38;0.95;;;;;;;23.33;41.26;95098.94;4995391;28;20056;-85
2021/04/23 00:42:24;;;;;;;1.83;1.00;;;;;;;23.31;41.66;95090.56;4995427;28;20493;-85
2021/04/23 00:44:50;;;;;;;2.22;0.90;;;;;;;23.31;41.77;95089.81;5012223;28;20036;-85
2021/04/23 00:47:15;;;;;;;1.35;1.00;;;;;;;23.28;41.32;95080.66;5011703;28;20037;-85
2021/04/23 00:49:41;;;;;;;1.52;0.80;;;;;;;23.31;41.51;95101.47;5012364;28;20096;-84
2021/04/23 00:52:06;;;;;;;1.85;1.08;;;;;;;23.31;41.56;95098.72;5012223;28;20060;-85
2021/04/23 00:54:32;;;;;;;1.48;0.90;;;;;;;23.30;41.73;95097.25;5006477;28;20393;-85
2021/04/23 00:56:58;;;;;;;1.63;0.80;;;;;;;23.25;41.61;95103.47;4995559;28;20029;-85
2021/04/23 00:59:23;;;;;;;1.13;0.80;;;;;;;23.25;41.23;95092.59;4992810;28;20022;-85
2021/04/23 01:01:57;;;;;;;1.45;0.90;;;;;;;23.22;41.87;95085.41;4993284;28;20077;-84
2021/04/23 01:04:22;;;;;;;1.60;0.90;;;;;;;23.25;41.36;95092.59;4992727;28;20112;-85
2021/04/23 01:06:48;;;;;;;2.38;1.00;;;;;;;23.24;41.50;95096.53;4992235;28;20084;-84
2021/04/23 01:09:18;;;;;;;1.38;0.90;;;;;;;23.24;41.48;95101.25;4992436;28;20026;-85
2021/04/23 01:11:44;;;;;;;1.73;0.90;;;;;;;23.14;41.42;95081.78;4992724;28;20036;-85
2021/04/23 01:14:10;;;;;;;1.10;0.77;;;;;;;23.26;41.64;95101.50;4975129;28;20097;-85
2021/04/23 01:16:35;;;;;;;1.80;0.95;;;;;;;23.21;41.45;95108.44;4975058;28;20088;-84
2021/04/23 01:19:01;;;;;;;1.70;1.10;;;;;;;23.21;41.54;95108.44;4991167;28;20022;-85
2021/04/23 01:21:28;;;;;;;1.45;0.90;;;;;;;23.15;41.83;95105.06;4992205;28;20413;-85
2021/04/23 01:23:55;;;;;;;1.88;0.85;;;;;;;23.22;41.66;95115.38;4991022;28;20034;-85
2021/04/23 01:26:22;;;;;;;1.50;0.90;;;;;;;23.17;41.86;95112.69;4992316;28;20029;-85
2021/04/23 01:28:48;;;;;;;1.35;0.90;;;;;;;23.20;41.79;95112.44;4975444;28;20018;-85
2021/04/23 01:31:15;;;;;;;1.38;1.10;;;;;;;23.08;42.03;95105.59;4992134;28;20061;-85
2021/04/23 01:33:42;;;;;;;1.77;1.10;;;;;;;23.14;41.79;95114.47;4990774;28;20398;-85
2021/04/23 01:36:07;;;;;;;1.42;0.90;;;;;;;23.18;41.58;95114.91;4987468;28;20032;-85
2021/04/23 01:38:33;;;;;;;1.40;0.90;;;;;;;23.08;41.49;95111.03;4994054;28;20121;-84
2021/04/23 01:40:59;;;;;;;1.52;1.00;;;;;;;23.16;41.86;95122.13;4977606;28;20037;-85
2021/04/23 01:43:24;;;;;;;1.40;1.00;;;;;;;23.13;41.50;95112.97;4993658;28;20030;-84
2021/04/23 01:45:49;;;;;;;1.33;0.90;;;;;;;23.08;41.61;95111.03;4978316;28;20026;-86
2021/04/23 01:48:17;;;;;;;1.20;0.90;;;;;;;23.10;41.48;95124.88;4981562;28;20100;-85
2021/04/23 01:50:43;;;;;;;1.58;1.10;;;;;;;23.13;41.79;95121.13;4994007;28;20077;-85
2021/04/23 01:53:09;;;;;;;1.63;1.00;;;;;;;23.04;41.96;95116.00;4993705;28;20452;-85
2021/04/23 01:55:34;;;;;;;2.33;1.10;;;;;;;23.00;41.59;95110.09;4993842;28;20481;-85
2021/04/23 01:58:00;;;;;;;1.60;1.10;;;;;;;23.02;41.90;95113.03;4993311;28;20018;-86
2021/04/23 02:00:28;;;;;;;1.10;0.90;;;;;;;23.03;41.54;95119.97;4977140;28;20034;-85
2021/04/23 02:02:54;;;;;;;1.27;0.90;;;;;;;23.09;41.88;95128.88;5011450;28;20029;-86
2021/04/23 02:05:20;;;;;;;1.58;0.95;;;;;;;23.01;41.82;95121.72;5010978;28;20489;-85
2021/04/23 02:07:46;;;;;;;2.13;1.33;;;;;;;23.08;41.53;95132.81;4992896;28;20025;-86
2021/04/23 02:10:13;;;;;;;1.42;1.00;;;;;;;23.06;41.62;95129.88;4989289;28;20528;-86
2021/04/23 02:12:39;;;;;;;1.92;1.10;;;;;;;23.09;41.90;95128.88;4991260;28;20030;-85
2021/04/23 02:15:07;;;;;;;1.70;1.05;;;;;;;23.05;41.50;95139.28;4991467;28;20026;-85
2021/04/23 02:17:32;;;;;;;1.48;1.10;;;;;;;23.03;41.85;95141.78;4991386;28;20018;-86
2021/04/23 02:19:58;;;;;;;1.40;0.95;;;;;;;22.99;41.82;95135.84;4997707;28;20044;-85
2021/04/23 02:22:23;;;;;;;1.63;0.90;;;;;;;23.04;41.91;95132.34;4993527;28;20424;-85
2021/04/23 02:24:49;;;;;;;2.47;0.98;;;;;;;23.01;41.61;95127.91;4997082;28;20057;-85
2021/04/23 02:27:14;;;;;;;1.48;0.90;;;;;;;23.02;41.71;95139.56;4990071;28;20421;-84
2021/04/23 02:29:40;;;;;;;1.63;0.98;;;;;;;23.04;41.76;95135.06;4957343;28;20062;-84
2021/04/23 02:32:05;;;;;;;1.80;1.00;;;;;;;23.01;41.64;95144.25;4990898;28;20085;-85
2021/04/23 02:34:31;;;;;;;1.70;1.00;;;;;;;23.04;41.67;95137.78;4991344;28;20191;-86
2021/04/23 02:36:56;;;;;;;1.48;0.90;;;;;;;23.01;41.80;95144.25;4974303;28;20026;-85
2021/04/23 02:39:22;;;;;;;2.03;1.13;;;;;;;23.02;41.76;95151.19;4994050;28;20018;-85
2021/04/23 02:41:51;;;;;;;1.70;1.35;;;;;;;22.98;41.78;95137.06;4991239;28;20034;-84
2021/04/23 02:44:17;;;;;;;1.35;0.80;;;;;;;23.01;41.86;95154.41;4991063;28;20572;-85
2021/04/23 02:46:43;;;;;;;1.67;1.10;;;;;;;22.98;41.68;95150.69;4991058;28;20026;-85
2021/04/23 02:49:08;;;;;;;1.13;0.98;;;;;;;22.98;41.64;95149.97;4991146;28;20030;-85
2021/04/23 02:51:36;;;;;;;1.60;0.95;;;;;;;22.92;41.88;95144.50;4986343;28;20454;-84
2021/04/23 02:54:02;;;;;;;1.48;0.90;;;;;;;22.98;41.67;95156.13;4970429;28;20556;-85
2021/04/23 02:56:28;;;;;;;1.83;1.13;;;;;;;22.97;41.81;95159.38;4954554;28;20030;-84
2021/04/23 02:58:56;;;;;;;1.48;1.00;;;;;;;22.97;41.73;95160.13;4974634;28;20062;-84
2021/04/23 03:01:23;;;;;;;1.90;1.00;;;;;;;22.97;41.67;95157.41;4990520;28;20043;-84
2021/04/23 03:03:49;;;;;;;1.65;0.93;;;;;;;22.96;41.56;95158.63;4991085;28;20038;-85
2021/04/23 03:06:14;;;;;;;1.50;1.10;;;;;;;22.95;41.84;95162.59;4990793;28;20038;-85
2021/04/23 03:08:40;;;;;;;1.50;1.08;;;;;;;22.91;41.76;95167.56;4990806;28;20034;-85
2021/04/23 03:11:11;;;;;;;1.63;1.00;;;;;;;22.96;41.75;95180.41;4992153;28;20418;-84
2021/04/23 03:13:41;;;;;;;1.35;1.00;;;;;;;22.94;41.68;95180.19;4993657;28;20045;-85
2021/04/23 03:16:07;;;;;;;;;;;;;;;22.91;41.74;95178.44;4974657;28;20502;-85
2021/04/23 03:18:33;;;;;;;1.27;1.02;;;;;;;22.93;41.67;95181.44;4975769;28;19962;-84
2021/04/23 03:20:59;;;;;;;1.50;1.00;;;;;;;22.96;41.93;95185.88;4973526;28;20486;-84
2021/04/23 03:23:25;;;;;;;1.50;0.98;;;;;;;22.93;41.83;95175.97;4975609;28;20042;-85
2021/04/23 03:25:51;;;;;;;1.70;1.15;;;;;;;22.92;41.92;95177.19;4975356;28;20054;-85
2021/04/23 03:28:16;;;;;;;1.50;1.00;;;;;;;22.84;41.98;95174.75;4976750;28;20403;-85
2021/04/23 03:30:42;;;;;;;1.40;1.00;;;;;;;22.78;41.49;95174.78;4974266;28;20501;-85
2021/04/23 03:33:08;;;;;;;1.70;1.10;;;;;;;22.91;41.79;95183.88;4974254;28;20110;-85
2021/04/23 03:35:34;;;;;;;1.42;1.13;;;;;;;22.91;41.88;95191.31;4983817;28;20034;-85
2021/04/23 03:38:00;;;;;;;1.48;1.15;;;;;;;22.90;41.78;95187.84;4993552;28;20023;-84
2021/04/23 03:40:26;;;;;;;1.65;1.08;;;;;;;22.89;41.58;95194.53;4987175;28;20031;-88
2021/04/23 03:42:52;;;;;;;1.52;1.00;;;;;;;22.92;42.09;95193.53;4975264;28;20040;-84
2021/04/23 03:45:18;;;;;;;1.40;1.00;;;;;;;22.96;41.64;95194.03;4980243;28;20486;-85
2021/04/23 03:47:44;;;;;;;2.50;1.83;;;;;;;22.80;41.30;95198.78;4997022;28;20041;-77
2021/04/23 03:50:11;;;;;;;1.65;1.10;;;;;;;22.88;41.98;95205.19;4993875;28;20054;-78
2021/04/23 03:52:36;;;;;;;1.50;1.02;;;;;;;22.89;42.15;95201.97;5019668;28;20044;-77
2021/04/23 03:55:06;;;;;;;1.80;1.10;;;;;;;23.07;41.33;95218.50;4973210;28;20423;-77
2021/04/23 03:57:33;;;;;;;1.48;1.00;;;;;;;23.16;41.32;95220.94;5016583;28;20489;-77
2021/04/23 03:59:58;;;;;;;1.30;0.90;;;;;;;23.23;41.62;95208.75;4990238;28;20026;-77
2021/04/23 04:02:23;;;;;;;1.75;1.00;;;;;;;23.31;41.07;95205.00;5010641;28;20028;-78
2021/04/23 04:04:49;;;;;;;1.55;1.17;;;;;;;23.40;41.22;95208.16;4969626;28;20030;-76
2021/04/23 04:07:14;;;;;;;1.42;1.08;;;;;;;23.53;41.06;95215.78;4995337;28;20060;-75
2021/04/23 04:09:40;;;;;;;1.65;1.17;;;;;;;23.68;41.00;95227.84;5007910;28;20025;-76
2021/04/23 04:12:05;;;;;;;1.70;0.90;;;;;;;23.79;40.40;95232.50;5022178;28;20478;-78
2021/04/23 04:14:31;;;;;;;1.40;0.90;;;;;;;23.90;40.27;95223.00;5001599;28;20090;-78
2021/04/23 04:16:56;;;;;;;1.58;1.00;;;;;;;24.00;40.53;95210.50;5014737;28;20018;-77
2021/04/23 04:19:22;;;;;;;1.60;1.10;;;;;;;24.15;40.14;95216.31;4999325;28;20022;-79
2021/04/23 04:21:47;;;;;;;2.47;0.90;;;;;;;24.23;39.99;95220.00;5002422;28;20018;-78
2021/04/23 04:24:13;;;;;;;2.95;1.02;;;;;;;24.40;39.60;95231.53;5007728;28;20033;-78
2021/04/23 04:26:38;;;;;;;1.90;1.15;;;;;;;24.51;39.25;95225.94;5005478;28;20049;-78
2021/04/23 04:29:04;;;;;;;1.40;0.93;;;;;;;24.62;39.19;95231.28;4999566;28;20421;-75
2021/04/23 04:31:30;;;;;;;1.33;0.85;;;;;;;24.72;39.36;95235.16;5006054;28;20037;-75
2021/04/23 04:33:57;;;;;;;1.20;0.90;;;;;;;24.82;39.03;95235.03;5003034;28;20034;-73
2021/04/23 04:36:22;;;;;;;1.58;0.90;;;;;;;24.91;38.75;95242.88;5008329;28;20033;-72
2021/04/23 04:38:47;;;;;;;1.63;1.00;;;;;;;25.01;38.65;95235.13;5008992;28;20033;-75
2021/04/23 04:41:13;;;;;;;1.55;1.00;;;;;;;25.09;38.66;95231.28;4994873;28;20030;-77
2021/04/23 04:43:39;;;;;;;1.35;0.80;;;;;;;25.25;38.10;95235.09;4998301;28;20513;-80
2021/04/23 04:46:06;;;;;;;2.08;0.85;;;;;;;25.28;38.58;95232.06;4990974;28;20032;-76
2021/04/23 04:48:31;;;;;;;1.10;0.85;;;;;;;25.35;38.21;95237.69;4971681;28;20040;-74
2021/04/23 04:50:58;;;;;;;1.83;1.00;;;;;;;25.42;38.07;95241.81;4996340;28;20034;-82
2021/04/23 04:53:23;;;;;;;1.55;0.98;;;;;;;25.48;38.05;95245.22;5000371;28;20052;-76
2021/04/23 04:55:52;;;;;;;1.35;0.85;;;;;;;25.57;38.33;95255.78;4947336;28;20043;-73
2021/04/23 04:58:19;;;;;;;1.40;0.80;;;;;;;25.63;37.88;95256.44;5002888;28;20026;-73
2021/04/23 05:00:45;;;;;;;1.70;1.10;;;;;;;25.73;38.04;95260.31;5001141;28;20121;-76
2021/04/23 05:03:11;;;;;;;1.23;0.80;;;;;;;25.76;38.05;95267.50;4992216;28;20082;-79
2021/04/23 05:05:36;;;;;;;1.70;1.08;;;;;;;25.76;37.47;95248.34;4991442;28;20026;-81
2021/04/23 05:08:02;;;;;;;2.72;1.08;;;;;;;25.86;37.54;95253.66;4975553;28;20037;-80
2021/04/23 05:10:27;;;;;;;1.75;1.10;;;;;;;25.88;37.40;95245.66;4997801;28;20021;-80
2021/04/23 05:12:53;;;;;;;1.30;0.90;;;;;;;25.91;37.66;95244.59;5001992;28;20543;-77
2021/04/23 05:15:19;;;;;;;1.50;0.90;;;;;;;25.92;37.47;95251.56;4976717;28;20145;-81
2021/04/23 05:17:45;;;;;;;1.50;1.00;;;;;;;26.08;37.13;95247.81;4971601;28;20030;-79
2021/04/23 05:20:11;;;;;;;1.15;0.80;;;;;;;26.10;37.34;95267.22;5014908;28;20501;-82
2021/04/23 05:22:36;;;;;;;1.60;0.90;;;;;;;26.14;37.36;95264.91;5021867;28;20507;-77
2021/04/23 05:25:06;;;;;;;1.65;0.98;;;;;;;26.18;37.52;95273.56;4977164;28;20034;-80
2021/04/23 05:27:32;;;;;;;1.88;1.10;;;;;;;26.17;37.71;95255.66;5016916;28;20517;-73
2021/04/23 05:29:58;;;;;;;1.70;1.10;;;;;;;26.21;38.17;95255.38;4975044;28;20022;-77
2021/04/23 05:32:23;;;;;;;1.95;1.08;;;;;;;26.33;39.43;95262.91;4999481;28;20110;-77
2021/04/23 05:34:49;;;;;;;1.35;0.82;;;;;;;26.30;39.52;95274.91;4998997;28;20489;-75
2021/04/23 05:37:14;;;;;;;1.45;0.88;;;;;;;26.40;39.54;95273.25;4993142;28;20030;-84
2021/04/23 05:39:43;;;;;;;1.70;0.90;;;;;;;26.39;38.61;95274.50;4999150;28;20038;-77
2021/04/23 05:42:12;;;;;;;1.00;0.70;;;;;;;26.41;37.65;95269.22;4993407;28;20521;-76
2021/04/23 05:44:37;;;;;;;1.80;0.98;;;;;;;26.39;38.02;95266.28;4977159;28;20502;-79
2021/04/23 05:47:04;;;;;;;1.63;1.00;;;;;;;26.48;37.22;95274.84;4977614;28;20046;-76
2021/04/23 05:49:30;;;;;;;1.23;0.70;;;;;;;26.41;37.43;95280.19;4985978;28;20476;-75
2021/04/23 05:51:56;;;;;;;1.42;0.75;;;;;;;26.39;37.23;95288.19;4975300;28;20655;-73
2021/04/23 05:54:22;;;;;;;1.45;0.77;;;;;;;26.37;37.36;95290.72;4992804;28;20026;-73
2021/04/23 05:56:47;;;;;;;1.20;0.80;;;;;;;26.40;37.33;95287.66;4976155;28;20505;-79
2021/04/23 05:59:13;;;;;;;1.63;0.90;;;;;;;26.51;36.96;95286.75;4984575;28;20041;-75
2021/04/23 06:01:38;;;;;;;1.58;0.90;;;;;;;26.44;37.16;95290.09;5002598;28;20033;-75
2021/04/23 06:04:04;;;;;;;1.10;0.80;;;;;;;26.52;37.08;95299.19;4992319;28;20018;-75
2021/04/23 06:06:29;;;;;;;1.42;0.80;;;;;;;26.52;36.98;95301.94;4988116;28;20029;-74
2021/04/23 06:08:55;;;;;;;1.42;1.05;;;;;;;26.48;36.97;95312.44;4997836;28;20030;-74
2021/04/23 06:11:21;;;;;;;1.17;0.88;;;;;;;26.52;36.77;95307.41;4994043;28;20034;-77
2021/04/23 06:13:46;;;;;;;1.85;0.90;;;;;;;26.71;36.88;95303.34;4995834;28;20041;-74
2021/04/23 06:16:12;;;;;;;1.58;0.80;;;;;;;26.74;36.95;95301.53;4994268;28;20026;-79
2021/04/23 06:18:38;;;;;;;1.13;0.75;;;;;;;26.71;36.87;95302.59;5001687;28;20094;-82
2021/04/23 06:21:05;;;;;;;1.38;0.80;;;;;;;26.67;36.79;95291.22;4990672;28;20121;-85
2021/04/23 06:23:31;;;;;;;1.10;0.73;;;;;;;26.74;36.81;95307.03;4982463;28;20030;-78
2021/04/23 06:25:56;;;;;;;1.42;1.00;;;;;;;26.71;36.59;95308.06;4987576;28;20017;-92
2021/04/23 06:28:22;;;;;;;2.03;1.00;;;;;;;26.70;36.84;95306.63;4998120;28;20103;-81
2021/04/23 06:30:47;;;;;;;1.85;0.95;;;;;;;26.76;36.58;95310.00;5008428;28;20038;-82
2021/04/23 06:33:21;;;;;;;1.60;0.98;;;;;;;26.79;36.55;95310.41;4991453;28;20036;-80
2021/04/23 06:35:47;;;;;;;1.38;0.70;;;;;;;26.67;36.54;95313.16;4990933;28;20022;-81
2021/04/23 06:38:12;;;;;;;1.70;1.23;;;;;;;26.69;36.51;95305.13;5003368;28;20540;-81
2021/04/23 06:40:38;;;;;;;1.45;1.00;;;;;;;26.83;36.68;95308.09;4993797;28;20030;-77
2021/04/23 06:43:03;;;;;;;1.73;1.00;;;;;;;26.88;36.45;95307.25;4998296;28;20083;-85
2021/04/23 06:45:29;;;;;;;2.45;0.90;;;;;;;26.76;36.65;95304.53;4991317;28;20180;-86
2021/04/23 06:47:54;;;;;;;1.90;0.93;;;;;;;26.64;36.64;95303.22;4988665;28;20034;-85
2021/04/23 06:50:21;;;;;;;1.23;0.73;;;;;;;26.49;36.59;95313.94;4993312;28;20046;-86
2021/04/23 06:52:46;;;;;;;1.52;0.90;;;;;;;26.47;36.92;95313.69;5000208;28;20026;-86
2021/04/23 06:55:12;;;;;;;2.75;0.90;;;;;;;26.52;36.91;95318.38;4912492;28;20034;-84
2021/04/23 06:57:38;;;;;;;1.67;0.90;;;;;;;26.38;36.93;95314.09;4985918;28;20026;-84
2021/04/23 07:00:07;;;;;;;1.38;0.90;;;;;;;26.19;37.21;95318.84;4990979;28;20059;-84
2021/04/23 07:02:32;;;;;;;1.40;0.90;;;;;;;26.18;37.22;95322.84;5010001;28;20025;-84
2021/04/23 07:04:58;;;;;;;1.23;0.70;;;;;;;26.01;37.42;95319.63;5001745;28;20477;-83
2021/04/23 07:07:23;;;;;;;1.38;0.80;;;;;;;25.99;37.47;95321.38;4982521;28;20028;-86
2021/04/23 07:09:48;;;;;;;1.80;0.98;;;;;;;25.88;37.70;95321.53;5003771;28;20026;-85
2021/04/23 07:12:14;;;;;;;1.50;0.88;;;;;;;25.82;37.95;95324.34;4978713;28;20084;-84
2021/04/23 07:14:39;;;;;;;1.40;1.00;;;;;;;25.75;37.84;95328.94;4954238;28;20422;-85
2021/04/23 07:17:05;;;;;;;1.58;1.00;;;;;;;25.66;37.73;95323.81;4984411;28;20387;-84
2021/04/23 07:19:30;;;;;;;1.63;1.10;;;;;;;25.53;38.06;95329.16;4989165;28;20030;-84
2021/04/23 07:21:56;;;;;;;1.63;1.00;;;;;;;25.46;38.22;95329.78;4989910;28;20085;-84
2021/04/23 07:24:21;;;;;;;1.67;0.98;;;;;;;25.37;38.36;95316.44;4977859;28;20405;-85
2021/04/23 07:26:47;;;;;;;1.90;1.00;;;;;;;25.23;38.36;95323.09;4981502;28;20552;-85
2021/04/23 07:29:12;;;;;;;2.08;1.10;;;;;;;25.26;38.57;95327.53;4996770;28;20037;-84
2021/04/23 07:31:38;;;;;;;2.38;1.05;;;;;;;25.22;38.75;95326.31;4981457;28;20026;-85
2021/04/23 07:34:03;;;;;;;1.20;0.80;;;;;;;25.11;38.28;95332.66;4977068;28;20038;-82
2021/04/23 07:36:29;;;;;;;1.55;1.00;;;;;;;25.06;38.71;95341.63;4974840;28;20025;-84
2021/04/23 07:38:54;;;;;;;1.63;1.10;;;;;;;25.02;38.72;95334.97;5000873;28;20041;-83
2021/04/23 07:41:20;;;;;;;1.50;1.10;;;;;;;25.00;38.85;95335.47;4986143;28;20084;-84
2021/04/23 07:43:45;;;;;;;1.90;1.10;;;;;;;24.97;38.82;95333.00;4976801;28;20036;-82
2021/04/23 07:46:11;;;;;;;2.10;1.30;;;;;;;24.88;38.76;95341.53;4972341;28;20464;-86
2021/04/23 07:48:36;;;;;;;1.65;0.95;;;;;;;24.87;39.10;95340.03;4978530;28;20037;-85
2021/04/23 07:51:02;;;;;;;1.50;1.02;;;;;;;24.78;39.19;95336.91;4988567;28;20050;-83
2021/04/23 07:53:27;;;;;;;2.78;1.17;;;;;;;24.79;39.14;95332.94;4989407;28;20509;-84
2021/04/23 07:55:53;;;;;;;1.60;1.17;;;;;;;24.72;39.25;95349.88;4982082;28;20034;-83
2021/04/23 07:58:18;;;;;;;1.98;0.93;;;;;;;24.68;39.44;95343.94;4971812;28;20031;-82
2021/04/23 08:00:44;;;;;;;1.60;0.95;;;;;;;24.64;39.52;95346.22;4975174;28;20034;-82
2021/04/23 08:03:09;;;;;;;1.90;1.10;;;;;;;24.61;39.15;95344.53;4989924;28;20491;-84
2021/04/23 08:05:35;;;;;;;1.42;0.90;;;;;;;24.54;39.67;95345.06;4973340;28;20478;-82
2021/04/23 08:08:01;;;;;;;1.95;1.25;;;;;;;24.56;39.60;95351.50;4989004;28;20425;-82
2021/04/23 08:10:27;;;;;;;1.83;1.02;;;;;;;24.47;39.95;95345.63;4993271;28;20030;-84
2021/04/23 08:12:53;;;;;;;1.35;1.10;;;;;;;24.50;39.79;95341.88;4973969;28;20041;-83
2021/04/23 08:15:19;;;;;;;2.15;1.27;;;;;;;24.50;39.77;95350.09;4991692;28;20500;-83
2021/04/23 08:17:44;;;;;;;1.73;1.20;;;;;;;24.49;40.06;95343.13;4988869;28;20861;-83
2021/04/23 08:20:10;;;;;;;1.83;1.10;;;;;;;24.44;39.50;95352.13;4973059;28;20026;-81
2021/04/23 08:22:36;;;;;;;1.33;1.08;;;;;;;24.34;39.71;95338.00;4974190;28;20026;-84
2021/04/23 08:25:03;;;;;;;1.60;1.10;;;;;;;24.42;40.11;95349.13;4956431;28;20152;-84
2021/04/23 08:27:29;;;;;;;1.73;1.30;;;;;;;24.35;40.15;95344.22;4972347;28;20399;-84
2021/04/23 08:29:54;;;;;;;1.70;1.27;;;;;;;24.33;39.51;95345.97;4988986;28;20038;-83
2021/04/23 08:32:20;;;;;;;1.27;0.82;;;;;;;24.29;40.12;95346.22;4974286;28;20109;-83
2021/04/23 08:34:46;;;;;;;2.00;1.33;;;;;;;24.31;39.74;95348.47;4974205;28;20034;-83
2021/04/23 08:37:12;;;;;;;1.70;1.30;;;;;;;24.26;39.77;95341.78;4988110;28;20418;-82
2021/04/23 08:39:37;;;;;;;2.00;1.10;;;;;;;24.24;40.18;95340.81;4973348;28;20089;-83
2021/04/23 08:42:04;;;;;;;1.73;1.20;;;;;;;24.24;40.02;95349.72;4972122;28;20023;-83
2021/04/23 08:44:29;;;;;;;1.77;1.20;;;;;;;24.18;40.31;95338.09;4989701;28;20068;-81
2021/04/23 08:46:55;;;;;;;2.25;1.23;;;;;;;24.10;40.10;95339.91;4975065;28;20133;-83
2021/04/23 08:49:20;;;;;;;2.03;1.10;;;;;;;24.11;40.36;95346.84;4991865;28;20026;-84
2021/04/23 08:51:46;;;;;;;1.85;1.10;;;;;;;24.02;40.64;95338.97;4991431;28;20445;-82
2021/04/23 08:54:11;;;;;;;3.10;1.60;;;;;;;24.03;40.25;95340.44;4988387;28;20410;-82
2021/04/23 08:56:37;;;;;;;2.83;1.65;;;;;;;24.08;40.46;95353.31;4956073;28;20031;-84
2021/04/23 08:59:02;;;;;;;2.17;1.40;;;;;;;24.07;40.51;95343.63;4971871;28;20037;-83
2021/04/23 09:01:28;;;;;;;2.05;1.10;;;;;;;24.04;40.25;95341.19;4978358;28;20037;-86
2021/04/23 09:03:54;;;;;;;2.65;1.42;;;;;;;24.19;40.30;95349.78;4980070;28;20524;-88
2021/04/23 09:06:23;;;;;;;2.50;1.40;;;;;;;24.22;39.99;95341.31;4962180;28;20034;-80
2021/04/23 09:08:51;;;;;;;2.30;1.30;;;;;;;24.26;40.33;95347.25;4980140;28;20411;-82
2021/04/23 09:11:24;;;;;;;2.70;1.00;;;;;;;24.29;39.92;95354.44;4985572;28;20040;-79
2021/04/23 09:13:51;;;;;;;2.40;1.15;;;;;;;24.26;39.69;95335.56;4979157;28;20030;-83
2021/04/23 09:16:21;;;;;;;1.98;1.30;;;;;;;24.46;40.20;95355.06;4987307;28;20022;-86
2021/04/23 09:18:47;;;;;;;2.13;1.17;;;;;;;24.49;39.81;95356.78;4981961;28;20064;-85
2021/04/23 09:21:15;;;;;;;3.08;1.25;;;;;;;24.57;39.78;95361.19;4982962;28;20042;-87
2021/04/23 09:23:46;;;;;;;2.67;1.30;;;;;;;24.65;39.43;95350.44;4988979;28;20030;-84
2021/04/23 09:26:35;;;;;;;2.10;1.17;;;;;;;24.73;39.57;95356.84;4977638;28;20117;-84
2021/04/23 09:29:05;;;;;;;2.08;1.20;;;;;;;24.84;39.28;95355.50;4964927;28;20019;-82
2021/04/23 09:31:31;;;;;;;;;;;;;;;24.92;39.41;95347.47;4974786;28;20054;-80
2021/04/23 09:34:01;;;;;;;2.22;1.30;;;;;;;25.01;39.27;95345.16;4977353;28;19921;-81
2021/04/23 09:36:38;;;;;;;2.42;1.35;;;;;;;25.14;38.99;95350.75;4981276;28;20049;-95
2021/04/23 09:39:13;;;;;;;1.70;1.10;;;;;;;25.26;38.96;95351.38;4986422;28;20030;-82
2021/04/23 09:41:41;;;;;;;1.42;0.90;;;;;;;25.33;38.54;95352.28;4979055;28;20151;-81
2021/04/23 09:44:42;;;;;;;1.80;1.10;;;;;;;25.35;38.43;95347.03;4995531;28;20089;-79
2021/04/23 09:47:20;;;;;;;1.60;1.10;;;;;;;25.52;38.61;95352.31;4982020;28;20038;-80
2021/04/23 09:49:59;;;;;;;1.92;1.25;;;;;;;25.54;38.45;95347.06;4991136;28;20482;-80
2021/04/23 09:52:25;;;;;;;2.25;1.20;;;;;;;25.63;38.34;95358.38;5002846;28;20114;-80
2021/04/23 09:54:58;;;;;;;1.50;0.95;;;;;;;25.74;38.40;95357.53;4991791;28;20562;-81
2021/04/23 09:57:26;;;;;;;1.63;0.98;;;;;;;25.83;38.18;95355.94;4983231;28;20037;-80
2021/04/23 09:59:56;;;;;;;1.98;1.15;;;;;;;25.88;38.19;95357.84;4997529;28;20025;-69
2021/04/23 10:02:23;;;;;;;2.03;1.15;;;;;;;26.02;37.82;95356.69;5001456;28;20116;-83
2021/04/23 10:04:49;;;;;;;1.70;1.00;;;;;;;26.09;37.88;95347.84;5001929;28;20030;-77
2021/04/23 10:07:22;;;;;;;2.13;1.20;;;;;;;26.19;37.74;95343.50;4977367;28;20042;-73
2021/04/23 10:09:54;;;;;;;1.75;1.13;;;;;;;26.32;37.50;95349.03;4989078;28;20092;-76
2021/04/23 10:12:40;;;;;;;2.83;1.13;;;;;;;26.34;37.92;95349.28;4993257;28;20030;-76
2021/04/23 10:15:33;;;;;;;1.80;1.17;;;;;;;26.37;37.62;95350.97;4988056;28;20107;-81
2021/04/23 10:18:09;;;;;;;2.40;1.10;;;;;;;26.34;37.70;95346.53;4974170;28;20074;-76
2021/04/23 10:20:41;;;;;;;1.88;1.17;;;;;;;26.46;37.62;95353.31;4988173;28;20463;-74
2021/04/23 10:23:07;;;;;;;2.78;1.42;;;;;;;26.50;37.56;95349.03;4981671;28;20425;-76
2021/04/23 10:25:33;;;;;;;2.60;1.10;;;;;;;26.57;37.86;95348.41;4989880;28;20037;-76
2021/04/23 10:28:00;;;;;;;2.45;1.10;;;;;;;26.65;37.47;95348.53;4971669;28;20825;-77
2021/04/23 10:30:28;;;;;;;2.20;1.20;;;;;;;26.73;37.33;95354.91;4979020;28;20030;-78
2021/04/23 10:32:55;;;;;;;3.50;1.20;;;;;;;26.79;37.09;95362.47;4973976;28;20101;-79
2021/04/23 10:35:20;;;;;;;2.72;0.90;;;;;;;26.87;37.09;95352.38;4974757;28;20034;-82
2021/04/23 10:37:46;;;;;;;2.20;1.17;;;;;;;26.95;36.80;95356.03;4960497;28;20395;-84
2021/04/23 10:40:13;;;;;;;2.05;1.25;;;;;;;26.98;36.85;95349.50;4974893;28;20046;-88
2021/04/23 10:42:41;;;;;;;2.28;1.10;;;;;;;26.88;36.88;95353.84;4975131;28;20105;-91
2021/04/23 10:45:22;;;;;;;1.77;1.20;;;;;;;26.96;36.87;95357.47;4973456;28;20085;-88
2021/04/23 10:47:49;;;;;;;1.58;0.90;;;;;;;27.09;36.85;95354.78;4972739;28;20037;-74
2021/04/23 10:50:47;;;;;;;2.47;1.10;;;;;;;27.13;36.63;95349.72;4980676;28;20441;-74
2021/04/23 10:53:25;;;;;;;1.55;1.05;;;;;;;27.08;36.67;95353.28;4984761;28;20046;-73
2021/04/23 10:56:03;;;;;;;1.95;0.90;;;;;;;27.12;36.56;95348.22;4997135;28;20034;-76
2021/04/23 10:58:28;;;;;;;1.60;0.98;;;;;;;27.24;36.84;95352.25;4984985;28;20050;-94
2021/04/23 11:00:55;;;;;;;2.15;1.05;;;;;;;27.11;36.77;95335.78;5013433;28;20033;-93
2021/04/23 11:03:21;;;;;;;1.65;1.08;;;;;;;27.14;36.81;95351.19;4978319;28;20089;-86
2021/04/23 11:06:00;;;;;;;2.47;1.05;;;;;;;27.03;36.48;95334.94;5002468;28;20030;-88
2021/04/23 11:08:27;;;;;;;3.60;1.15;;;;;;;27.04;36.80;95325.47;4983049;28;20017;-94
2021/04/23 11:11:02;;;;;;;1.83;0.93;;;;;;;27.23;36.30;95342.53;4981662;28;20052;-96
2021/04/23 11:13:29;;;;;;;1.50;0.95;;;;;;;27.04;35.91;95319.97;5013665;28;20105;-93
2021/04/23 11:16:19;;;;;;;1.75;1.00;;;;;;;27.13;36.53;95338.75;5006139;28;20046;-92
2021/04/23 11:18:45;;;;;;;1.63;0.90;;;;;;;27.07;36.65;95340.09;5005199;28;20484;-90
2021/04/23 11:21:26;;;;;;;2.05;1.23;;;;;;;26.98;36.53;95333.03;4984924;28;20105;-89
2021/04/23 11:24:17;;;;;;;2.60;1.10;;;;;;;27.00;36.44;95330.50;5004059;28;20040;-90
2021/04/23 11:29:20;;;;;;;1.85;1.23;;;;;;;26.85;36.50;95319.28;5000246;28;20326;-86
2021/04/23 11:32:12;;;;;;;1.83;1.05;;;;;;;26.89;36.70;95330.72;4983381;28;20030;-90
2021/04/23 11:34:39;;;;;;;1.75;1.05;;;;;;;26.77;36.89;95309.47;4993565;28;20026;-92
2021/04/23 11:37:09;;;;;;;1.95;1.10;;;;;;;26.81;36.61;95324.31;5005974;28;20037;-78
2021/04/23 11:39:41;;;;;;;1.92;1.23;;;;;;;26.72;37.02;95323.25;5000426;28;20025;-93